createdAt,value
2023-12-04T00:00:53.365Z,79.08
2023-12-04T00:04:54.966Z,79.72
2023-12-04T00:08:56.510Z,79.42
2023-12-04T00:12:59.515Z,79.24
2023-12-04T00:17:01.069Z,79.01
2023-12-04T00:21:02.607Z,79.31
2023-12-04T00:25:05.075Z,79.27
2023-12-04T00:29:07.984Z,79.08
2023-12-04T00:33:10.993Z,79.00
2023-12-04T00:37:12.748Z,78.72
2023-12-04T00:41:14.390Z,78.78
2023-12-04T00:45:17.252Z,78.94
2023-12-04T00:49:18.855Z,78.61
2023-12-04T00:53:20.514Z,78.03
2023-12-04T00:57:22.154Z,78.32
2023-12-04T01:01:24.969Z,78.81
2023-12-04T01:05:26.562Z,78.54
2023-12-04T01:09:28.079Z,78.97
2023-12-04T01:13:29.877Z,78.59
2023-12-04T01:17:32.788Z,78.34
2023-12-04T01:21:34.411Z,78.53
2023-12-04T01:25:35.947Z,78.87
2023-12-04T01:29:37.479Z,78.04
2023-12-04T01:33:40.640Z,78.69
2023-12-04T01:37:42.374Z,77.71
2023-12-04T01:41:43.910Z,78.23
2023-12-04T01:45:45.696Z,78.58
2023-12-04T01:49:48.680Z,78.23
2023-12-04T01:53:51.758Z,78.52
2023-12-04T01:57:53.566Z,79.11
2023-12-04T02:01:55.275Z,78.51
2023-12-04T02:06:00.408Z,77.48
2023-12-04T02:10:02.149Z,77.52
2023-12-04T02:14:03.707Z,77.64
2023-12-04T02:18:06.141Z,76.86
2023-12-04T02:22:09.076Z,76.41
2023-12-04T02:26:17.630Z,77.05
2023-12-04T02:30:22.189Z,76.51
2023-12-04T02:34:25.126Z,76.98
2023-12-04T02:38:27.398Z,76.92
2023-12-04T02:42:30.524Z,76.67
2023-12-04T02:46:32.366Z,75.86
2023-12-04T02:50:33.824Z,76.50
2023-12-04T02:54:35.435Z,76.26
2023-12-04T02:58:38.252Z,76.45
2023-12-04T03:02:39.682Z,75.26
2023-12-04T03:06:41.193Z,74.84
2023-12-04T03:10:42.672Z,75.02
2023-12-04T03:14:45.526Z,74.95
2023-12-04T03:18:47.215Z,75.05
2023-12-04T03:22:48.762Z,75.49
2023-12-04T03:26:50.227Z,75.66
2023-12-04T03:30:53.095Z,75.47
2023-12-04T03:34:54.627Z,75.88
2023-12-04T03:38:56.092Z,75.42
2023-12-04T03:42:57.613Z,75.57
2023-12-04T03:47:00.645Z,76.55
2023-12-04T03:51:02.179Z,75.95
2023-12-04T03:55:04.636Z,75.46
2023-12-04T03:59:06.645Z,75.55
2023-12-04T04:03:09.808Z,75.86
2023-12-04T04:07:12.495Z,75.24
2023-12-04T04:11:14.429Z,75.79
2023-12-04T04:15:15.978Z,75.43
2023-12-04T04:19:18.886Z,74.79
2023-12-04T04:23:20.395Z,75.71
2023-12-04T04:27:21.879Z,75.59
2023-12-04T04:31:23.612Z,75.66
2023-12-04T04:35:26.402Z,75.92
2023-12-04T04:39:27.878Z,75.45
2023-12-04T04:43:29.612Z,75.93
2023-12-04T04:47:31.102Z,75.56
2023-12-04T04:51:34.175Z,75.43
2023-12-04T04:55:47.251Z,75.44
2023-12-04T04:59:50.727Z,76.30
2023-12-04T05:08:50.559Z,76.63
2023-12-04T05:12:52.265Z,76.04
2023-12-04T05:16:53.740Z,76.62
2023-12-04T05:20:55.231Z,76.72
2023-12-04T05:24:58.889Z,77.04
2023-12-04T05:29:00.398Z,77.06
2023-12-04T05:33:02.907Z,76.77
2023-12-04T05:37:04.818Z,76.60
2023-12-04T05:41:07.806Z,76.85
2023-12-04T05:45:10.163Z,76.52
2023-12-04T05:49:11.731Z,76.41
2023-12-04T05:53:13.527Z,76.90
2023-12-04T05:57:16.348Z,76.79
2023-12-04T06:01:18.103Z,76.57
2023-12-04T06:05:19.858Z,76.55
2023-12-04T06:09:21.370Z,76.30
2023-12-04T06:13:24.169Z,76.53
2023-12-04T06:17:25.984Z,76.03
2023-12-04T06:21:27.455Z,76.17
2023-12-04T06:25:29.858Z,76.58
2023-12-04T06:29:33.784Z,76.66
2023-12-04T06:33:36.009Z,77.08
2023-12-04T06:37:39.144Z,76.81
2023-12-04T06:41:41.537Z,77.36
2023-12-04T06:45:45.118Z,77.26
2023-12-04T06:49:46.651Z,77.41
2023-12-04T06:53:48.266Z,76.45
2023-12-04T06:57:49.823Z,76.50
2023-12-04T07:01:55.017Z,76.67
2023-12-04T07:05:56.612Z,76.17
2023-12-04T07:09:58.415Z,75.80
2023-12-04T07:13:59.982Z,75.44
2023-12-04T07:18:05.176Z,75.11
2023-12-04T07:22:06.806Z,74.85
2023-12-04T07:26:08.441Z,74.22
2023-12-04T07:30:10.625Z,73.87
2023-12-04T07:34:15.240Z,73.96
2023-12-04T07:38:16.847Z,73.58
2023-12-04T07:42:18.387Z,73.93
2023-12-04T07:46:19.996Z,73.63
2023-12-04T07:50:22.785Z,72.54
2023-12-04T07:54:24.241Z,73.07
2023-12-04T07:58:25.754Z,72.95
2023-12-04T08:02:27.505Z,72.71
2023-12-04T08:06:30.929Z,72.33
2023-12-04T08:10:32.459Z,72.60
2023-12-04T08:14:34.915Z,72.58
2023-12-04T08:18:36.841Z,72.12
2023-12-04T08:22:40.035Z,71.87
2023-12-04T08:26:41.510Z,71.95
2023-12-04T08:30:43.080Z,72.13
2023-12-04T08:34:45.196Z,72.47
2023-12-04T08:38:48.052Z,72.91
2023-12-04T08:42:49.573Z,72.76
2023-12-04T08:46:51.217Z,72.44
2023-12-04T08:50:52.765Z,72.55
2023-12-04T08:54:56.654Z,72.02
2023-12-04T08:58:58.218Z,71.71
2023-12-04T09:03:08.212Z,71.99
2023-12-04T09:08:26.741Z,71.59
2023-12-04T09:11:35.320Z,71.92
2023-12-04T09:15:36.942Z,71.91
2023-12-04T09:19:38.686Z,71.89
2023-12-04T09:23:41.418Z,71.20
2023-12-04T09:27:44.568Z,71.13
2023-12-04T09:31:46.089Z,70.69
2023-12-04T09:35:47.615Z,70.94
2023-12-04T09:39:49.069Z,70.46
2023-12-04T09:43:52.455Z,70.37
2023-12-04T09:47:55.200Z,70.20
2023-12-04T09:51:58.886Z,70.31
2023-12-04T09:56:04.371Z,70.00
2023-12-04T10:00:10.126Z,70.05
2023-12-04T10:04:11.610Z,70.03
2023-12-04T10:08:13.250Z,70.12
2023-12-04T10:12:19.371Z,69.46
2023-12-04T10:16:36.505Z,69.19
2023-12-04T10:20:52.578Z,69.17
2023-12-04T10:24:54.076Z,69.95
2023-12-04T10:29:03.576Z,69.49
2023-12-04T10:33:07.711Z,70.04
2023-12-04T10:37:11.098Z,69.51
2023-12-04T10:41:15.937Z,69.76
2023-12-04T10:45:17.977Z,70.47
2023-12-04T10:49:21.314Z,70.72
2023-12-04T10:53:22.895Z,70.44
2023-12-04T10:57:28.007Z,70.99
2023-12-04T11:01:33.368Z,72.66
2023-12-04T11:05:38.956Z,74.65
2023-12-04T11:09:41.150Z,75.45
2023-12-04T11:13:47.093Z,76.24
2023-12-04T11:17:52.277Z,77.72
2023-12-04T11:21:59.578Z,79.98
2023-12-04T11:26:02.092Z,82.00
2023-12-04T11:30:04.987Z,84.16
2023-12-04T11:34:09.861Z,86.22
2023-12-04T11:38:15.274Z,87.12
2023-12-04T11:42:20.264Z,87.63
2023-12-04T11:46:23.648Z,88.19
2023-12-04T11:50:25.835Z,87.48
2023-12-04T11:54:29.888Z,86.66
2023-12-04T11:58:31.420Z,85.92
2023-12-04T12:03:14.092Z,84.73
2023-12-04T12:06:55.499Z,83.63
2023-12-04T12:10:59.399Z,83.35
2023-12-04T12:15:01.065Z,82.96
2023-12-04T12:19:02.590Z,82.29
2023-12-04T12:23:04.625Z,82.41
2023-12-04T12:27:08.652Z,82.42
2023-12-04T12:31:11.846Z,82.37
2023-12-04T12:35:13.541Z,82.96
2023-12-04T12:39:15.525Z,82.86
2023-12-04T12:43:21.550Z,83.05
2023-12-04T12:47:24.087Z,83.33
2023-12-04T12:51:26.966Z,83.58
2023-12-04T12:55:28.775Z,83.90
2023-12-04T12:59:31.766Z,84.17
2023-12-04T13:03:33.449Z,84.20
2023-12-04T13:07:35.109Z,84.35
2023-12-04T13:11:36.616Z,84.47
2023-12-04T13:15:39.610Z,84.16
2023-12-04T13:19:41.099Z,84.93
2023-12-04T13:23:42.831Z,84.81
2023-12-04T13:27:44.389Z,84.95
2023-12-04T13:31:47.472Z,84.89
2023-12-04T13:35:49.241Z,84.85
2023-12-04T13:40:24.098Z,84.95
2023-12-04T13:44:37.840Z,84.95
2023-12-04T13:49:29.701Z,84.54
2023-12-04T13:53:53.864Z,84.61
2023-12-04T13:58:04.061Z,84.39
2023-12-04T14:02:06.352Z,84.42
2023-12-04T14:06:09.379Z,84.38
2023-12-04T14:10:12.484Z,84.32
2023-12-04T14:14:14.312Z,84.66
2023-12-04T14:18:15.871Z,84.48
2023-12-04T14:22:17.689Z,84.74
2023-12-04T14:26:20.564Z,84.25
2023-12-04T14:30:22.060Z,84.20
2023-12-04T14:34:24.111Z,83.84
2023-12-04T14:38:25.993Z,84.28
2023-12-04T14:42:29.006Z,84.15
2023-12-04T14:46:30.593Z,84.83
2023-12-04T14:50:32.202Z,84.85
2023-12-04T14:54:33.844Z,85.52
2023-12-04T14:58:36.659Z,85.19
2023-12-04T15:02:41.072Z,85.70
2023-12-04T15:06:42.727Z,87.21
2023-12-04T15:10:44.362Z,88.48
2023-12-04T15:14:47.226Z,89.95
2023-12-04T15:18:49.914Z,89.75
2023-12-04T15:22:51.536Z,89.32
2023-12-04T15:26:53.019Z,89.82
2023-12-04T15:30:56.049Z,90.13
2023-12-04T15:34:58.822Z,90.54
2023-12-04T15:39:01.203Z,90.76
2023-12-04T15:43:02.875Z,91.08
2023-12-04T15:47:06.188Z,90.75
2023-12-04T15:51:08.299Z,90.72
2023-12-04T15:55:10.140Z,90.33
2023-12-04T15:59:11.585Z,89.47
2023-12-04T16:03:15.525Z,89.06
2023-12-04T16:07:17.136Z,88.57
2023-12-04T16:11:18.798Z,88.07
2023-12-04T16:15:20.535Z,87.61
2023-12-04T16:19:23.481Z,87.38
2023-12-04T16:23:25.033Z,86.97
2023-12-04T16:27:26.635Z,86.87
2023-12-04T16:31:28.192Z,86.94
2023-12-04T16:35:31.993Z,87.10
2023-12-04T16:39:33.720Z,87.44
2023-12-04T16:43:35.243Z,86.58
2023-12-04T16:47:36.949Z,86.75
2023-12-04T16:51:39.994Z,86.98
2023-12-04T16:55:41.818Z,86.97
2023-12-04T16:59:44.568Z,87.50
2023-12-04T17:03:46.199Z,88.17
2023-12-04T17:07:49.095Z,89.07
2023-12-04T17:11:51.560Z,88.48
2023-12-04T17:15:53.060Z,89.04
2023-12-04T17:19:54.907Z,89.35
2023-12-04T17:23:57.794Z,90.14
2023-12-04T17:27:59.276Z,90.69
2023-12-04T17:32:00.860Z,91.21
2023-12-04T17:36:02.636Z,91.93
2023-12-04T17:40:06.606Z,92.47
2023-12-04T17:44:08.082Z,92.75
2023-12-04T17:48:09.639Z,93.40
2023-12-04T17:52:11.331Z,93.32
2023-12-04T17:56:14.224Z,93.50
2023-12-04T18:00:16.420Z,93.71
2023-12-04T18:04:18.071Z,93.91
2023-12-04T18:08:21.032Z,94.01
2023-12-04T18:12:24.041Z,94.54
2023-12-04T18:16:26.396Z,94.30
2023-12-04T18:20:29.304Z,94.66
2023-12-04T18:24:30.778Z,94.74
2023-12-04T18:28:34.356Z,94.91
2023-12-04T18:32:36.673Z,94.71
2023-12-04T18:36:43.000Z,94.77
2023-12-04T18:40:45.136Z,95.09
2023-12-04T18:44:48.628Z,95.52
2023-12-04T18:48:50.757Z,95.10
2023-12-04T18:52:52.831Z,94.69
2023-12-04T18:56:54.320Z,95.12
2023-12-04T19:00:57.468Z,95.03
2023-12-04T19:05:01.314Z,95.23
2023-12-04T19:09:03.129Z,94.92
2023-12-04T19:13:04.924Z,94.66
2023-12-04T19:17:07.860Z,94.62
2023-12-04T19:21:09.998Z,94.74
2023-12-04T19:25:11.515Z,94.85
2023-12-04T19:29:18.681Z,94.57
2023-12-04T19:33:28.446Z,94.34
2023-12-04T19:37:32.336Z,94.64
2023-12-04T19:41:33.839Z,94.54
2023-12-04T19:45:35.683Z,94.30
2023-12-04T19:49:43.453Z,94.54
2023-12-04T19:53:45.003Z,94.05
2023-12-04T19:57:46.539Z,94.53
2023-12-04T20:01:48.039Z,94.54
2023-12-04T20:05:51.161Z,94.42
2023-12-04T20:09:52.641Z,94.58
2023-12-04T20:13:54.127Z,94.55
2023-12-04T20:17:56.764Z,94.78
2023-12-04T20:22:00.221Z,95.33
2023-12-04T20:26:01.987Z,95.00
2023-12-04T20:30:04.271Z,95.53
2023-12-04T20:34:06.401Z,95.76
2023-12-04T20:38:09.321Z,95.44
2023-12-04T20:42:10.839Z,95.86
2023-12-04T20:46:12.338Z,95.88
2023-12-04T20:50:13.894Z,96.14
2023-12-04T20:54:17.924Z,95.78
2023-12-04T20:58:19.538Z,95.98
2023-12-04T21:02:21.016Z,95.93
2023-12-04T21:06:22.536Z,96.11
2023-12-04T21:10:25.434Z,96.17
2023-12-04T21:14:27.034Z,95.89
2023-12-04T21:18:28.706Z,96.44
2023-12-04T21:22:30.685Z,96.07
2023-12-04T21:26:33.869Z,96.32
2023-12-04T21:30:35.448Z,96.24
2023-12-04T21:34:37.161Z,96.18
2023-12-04T21:38:38.782Z,95.75
2023-12-04T21:42:42.103Z,96.01
2023-12-04T21:46:43.730Z,96.43
2023-12-04T21:50:45.317Z,96.08
2023-12-04T21:54:46.962Z,95.48
2023-12-04T21:58:49.868Z,95.21
2023-12-04T22:02:51.379Z,95.90
2023-12-04T22:06:52.966Z,95.38
2023-12-04T22:10:54.714Z,96.08
2023-12-04T22:14:57.994Z,95.84
2023-12-04T22:19:00.307Z,95.78
2023-12-04T22:23:01.828Z,95.59
2023-12-04T22:27:03.693Z,95.92
2023-12-04T22:31:07.245Z,95.73
2023-12-04T22:35:09.157Z,96.17
2023-12-04T22:39:10.766Z,96.60
2023-12-04T22:43:12.510Z,96.14
2023-12-04T22:47:15.475Z,96.66
2023-12-04T22:51:17.023Z,96.03
2023-12-04T22:55:18.514Z,95.86
2023-12-04T22:59:20.188Z,96.00
2023-12-04T23:03:23.092Z,96.25
2023-12-04T23:07:24.614Z,96.09
2023-12-04T23:11:27.122Z,96.10
2023-12-04T23:15:28.719Z,96.86
2023-12-04T23:19:32.303Z,96.16
2023-12-04T23:23:33.949Z,96.59
2023-12-04T23:27:38.128Z,96.43
2023-12-04T23:31:40.290Z,96.60
2023-12-04T23:35:43.103Z,96.70
2023-12-04T23:39:44.634Z,95.76
2023-12-04T23:43:46.157Z,96.55
2023-12-04T23:47:47.716Z,95.91
2023-12-04T23:51:51.729Z,95.53
2023-12-04T23:55:53.194Z,95.57
2023-12-04T23:59:54.670Z,96.04
